Time;durP1;ratioP1;P1;durP2;ratioP2;P2;SDS_P1;SDS_P2;PMS_P1;PMS_P2;Temp;Humidity;BMP_temperature;BMP_pressure;BME280_temperature;BME280_humidity;BME280_pressure;Samples;Min_cycle;Max_cycle;Signal;HPM_P1;HPM_P2
2021/12/25 00:01:02;;;;;;;4.63;1.70;;;7.50;99.90;;;;;;4977668;28;20054;-89
2021/12/25 00:03:39;;;;;;;4.10;2.00;;;7.50;99.90;;;;;;4975157;28;20431;-89
2021/12/25 00:06:13;;;;;;;4.37;1.80;;;7.50;99.90;;;;;;4978610;28;20026;-89
2021/12/25 00:08:53;;;;;;;3.93;2.17;;;7.40;99.90;;;;;;4979633;28;20039;-88
2021/12/25 00:11:19;;;;;;;5.07;2.10;;;7.40;99.90;;;;;;4982314;28;20039;-89
2021/12/25 00:13:45;;;;;;;4.63;1.50;;;7.50;99.90;;;;;;4989197;28;20007;-88
2021/12/25 00:16:18;;;;;;;3.57;1.70;;;7.40;99.90;;;;;;4980792;28;20022;-88
2021/12/25 00:19:11;;;;;;;3.67;1.43;;;7.40;99.90;;;;;;4981378;28;20034;-87
2021/12/25 00:21:48;;;;;;;2.90;1.27;;;7.40;99.90;;;;;;4981497;28;20010;-89
2021/12/25 00:24:22;;;;;;;3.80;1.67;;;7.30;99.90;;;;;;4980831;28;20025;-88
2021/12/25 00:34:42;;;;;;;3.53;1.53;;;7.30;99.90;;;;;;4989344;28;20080;-89
2021/12/25 00:37:09;;;;;;;4.83;2.40;;;7.30;99.90;;;;;;4966721;28;20062;-88
2021/12/25 00:39:56;;;;;;;4.07;1.70;;;7.30;99.90;;;;;;4990862;28;20066;-87
2021/12/25 00:42:22;;;;;;;3.13;1.57;;;7.40;99.90;;;;;;4964341;28;20507;-89
2021/12/25 00:44:48;;;;;;;3.23;1.50;;;7.40;99.90;;;;;;4956674;28;20027;-88
2021/12/25 00:47:14;;;;;;;4.10;1.63;;;7.40;99.90;;;;;;4955947;28;20099;-89
2021/12/25 00:49:40;;;;;;;3.60;1.47;;;7.40;99.90;;;;;;4956321;28;20539;-88
2021/12/25 00:52:05;;;;;;;3.80;1.73;;;7.40;99.90;;;;;;4955587;28;20122;-89
2021/12/25 00:54:34;;;;;;;3.90;1.77;;;7.40;99.90;;;;;;4955188;28;20025;-89
2021/12/25 00:56:59;;;;;;;3.50;1.60;;;7.40;99.90;;;;;;4956412;28;20027;-88
2021/12/25 00:59:25;;;;;;;4.77;1.80;;;7.30;99.90;;;;;;4973572;28;20679;-89
2021/12/25 01:01:51;;;;;;;4.40;1.57;;;7.30;99.90;;;;;;4973175;28;20098;-89
2021/12/25 01:04:16;;;;;;;4.90;2.10;;;7.30;99.90;;;;;;4956102;28;20034;-88
2021/12/25 01:06:42;;;;;;;4.10;1.63;;;7.20;99.90;;;;;;4956454;28;20042;-89
2021/12/25 01:09:08;;;;;;;4.63;1.90;;;7.20;99.90;;;;;;4975178;28;20023;-89
2021/12/25 01:11:35;;;;;;;3.63;1.70;;;7.20;99.90;;;;;;4956304;28;20023;-88
2021/12/25 01:14:09;;;;;;;5.87;1.73;;;7.20;99.90;;;;;;4973594;28;20034;-89
2021/12/25 01:30:19;;;;;;;3.80;1.67;;;7.20;99.90;;;;;;4970954;28;20778;-88
2021/12/25 01:48:38;;;;;;;5.33;1.70;;;7.20;99.90;;;;;;4971697;28;20088;-89
2021/12/25 01:51:05;;;;;;;3.30;1.73;;;7.10;99.90;;;;;;4954243;28;20034;-88
2021/12/25 01:53:31;;;;;;;4.03;2.00;;;7.10;99.90;;;;;;4972059;28;20026;-89
2021/12/25 01:56:00;;;;;;;7.53;2.40;;;7.20;99.90;;;;;;4954281;28;20022;-88
2021/12/25 01:58:25;;;;;;;4.40;1.80;;;7.10;99.90;;;;;;4968434;28;20023;-87
2021/12/25 02:00:55;;;;;;;4.20;2.03;;;7.10;99.90;;;;;;4960081;28;20030;-88
2021/12/25 02:03:23;;;;;;;4.43;2.00;;;7.10;99.90;;;;;;4959912;28;20122;-87
2021/12/25 02:05:49;;;;;;;5.23;2.00;;;7.10;99.90;;;;;;4961444;28;20054;-88
2021/12/25 02:08:16;;;;;;;4.93;2.23;;;7.10;99.90;;;;;;4956954;28;20117;-87
2021/12/25 02:10:42;;;;;;;6.33;2.13;;;7.00;99.90;;;;;;4958118;28;20410;-87
2021/12/25 02:13:09;;;;;;;4.80;1.83;;;6.90;99.90;;;;;;4957423;28;20102;-88
2021/12/25 02:15:36;;;;;;;5.17;1.90;;;7.00;99.90;;;;;;4957903;28;20050;-87
2021/12/25 02:23:36;;;;;;;6.37;2.73;;;7.00;99.90;;;;;;4952598;28;20026;-88
2021/12/25 02:26:02;;;;;;;6.93;2.57;;;7.00;99.90;;;;;;4952792;28;20106;-88
2021/12/25 02:28:28;;;;;;;4.50;2.30;;;7.00;99.90;;;;;;4958252;28;20034;-88
2021/12/25 02:30:57;;;;;;;4.43;2.37;;;7.00;99.90;;;;;;4957744;28;20038;-87
2021/12/25 02:33:25;;;;;;;4.80;1.93;;;7.00;99.90;;;;;;4956566;28;20470;-88
2021/12/25 02:35:51;;;;;;;5.13;2.03;;;7.10;99.90;;;;;;4957460;28;20047;-88
2021/12/25 02:38:17;;;;;;;5.43;2.07;;;7.10;99.90;;;;;;4957485;28;20097;-86
2021/12/25 02:40:42;;;;;;;4.97;2.50;;;7.10;99.90;;;;;;4975309;28;20093;-89
2021/12/25 02:43:08;;;;;;;3.60;1.70;;;7.20;99.90;;;;;;4957241;28;20238;-88
2021/12/25 02:45:34;;;;;;;6.07;2.53;;;7.20;99.90;;;;;;4957939;28;20479;-88
2021/12/25 02:48:07;;;;;;;6.50;2.10;;;7.20;99.90;;;;;;4957701;28;20022;-88
2021/12/25 02:50:34;;;;;;;5.73;2.40;;;7.10;99.90;;;;;;4955831;28;20483;-87
2021/12/25 02:53:02;;;;;;;4.37;2.00;;;7.20;99.90;;;;;;4973980;28;20015;-88
2021/12/25 02:55:28;;;;;;;5.63;2.20;;;7.20;99.90;;;;;;4959445;28;20019;-87
2021/12/25 02:57:54;;;;;;;5.03;2.10;;;7.10;99.90;;;;;;4978918;28;20029;-88
2021/12/25 03:00:26;;;;;;;5.70;2.77;;;7.20;99.90;;;;;;4955832;28;20176;-88
2021/12/25 03:02:52;;;;;;;4.05;1.60;;;7.10;99.90;;;;;;4957490;28;20509;-88
2021/12/25 03:05:18;;;;;;;4.90;2.30;;;7.10;99.90;;;;;;4956018;28;20137;-87
2021/12/25 03:07:45;;;;;;;4.50;2.10;;;7.10;99.90;;;;;;4957269;28;20031;-87
2021/12/25 03:10:13;;;;;;;3.77;2.07;;;7.10;99.90;;;;;;4954731;28;20133;-88
2021/12/25 03:13:18;;;;;;;3.30;1.60;;;7.10;99.90;;;;;;4974427;28;20506;-87
2021/12/25 03:15:45;;;;;;;5.00;1.42;;;7.10;99.90;;;;;;4969225;28;20062;-88
2021/12/25 03:18:20;;;;;;;4.80;1.80;;;7.10;99.90;;;;;;4957412;28;20061;-88
2021/12/25 03:20:50;;;;;;;3.83;1.37;;;7.00;99.90;;;;;;4956913;28;20053;-89
2021/12/25 03:23:20;;;;;;;3.93;1.67;;;7.10;99.90;;;;;;4974047;28;20062;-88
2021/12/25 03:25:47;;;;;;;3.80;1.67;;;7.10;99.90;;;;;;4956350;28;20491;-88
2021/12/25 03:28:14;;;;;;;3.33;1.40;;;7.10;99.90;;;;;;4973953;28;20023;-88
2021/12/25 03:30:40;;;;;;;3.00;1.03;;;7.20;99.90;;;;;;4972132;28;20129;-87
2021/12/25 03:33:09;;;;;;;3.93;1.60;;;7.20;99.90;;;;;;4956417;28;20492;-87
2021/12/25 03:35:35;;;;;;;4.73;1.70;;;7.20;99.90;;;;;;4956182;28;20395;-87
2021/12/25 03:38:02;;;;;;;3.33;1.53;;;7.20;99.90;;;;;;4973776;28;20023;-88
2021/12/25 03:40:28;;;;;;;3.63;1.60;;;7.20;99.90;;;;;;4956691;28;20574;-87
2021/12/25 03:42:54;;;;;;;5.13;1.90;;;7.30;99.90;;;;;;4956609;28;20030;-88
2021/12/25 03:45:20;;;;;;;3.90;1.57;;;7.30;99.90;;;;;;4974086;28;20050;-88
2021/12/25 03:47:48;;;;;;;4.53;1.53;;;7.30;99.90;;;;;;4957199;28;20026;-88
2021/12/25 03:53:08;;;;;;;3.93;1.57;;;7.30;99.90;;;;;;4973893;28;20037;-89
2021/12/25 03:58:24;;;;;;;3.40;1.50;;;7.20;99.90;;;;;;4973828;28;20455;-88
2021/12/25 04:00:50;;;;;;;3.40;1.37;;;7.30;99.90;;;;;;4957525;28;20395;-88
2021/12/25 04:04:04;;;;;;;3.60;1.50;;;7.30;99.90;;;;;;4957239;28;20266;-88
2021/12/25 04:06:10;;;;;;;2.47;1.10;;;7.20;99.90;;;;;;4968618;28;20574;-88
2021/12/25 04:08:43;;;;;;;4.17;1.27;;;7.10;99.90;;;;;;4955686;28;20055;-88
2021/12/25 04:11:14;;;;;;;3.93;1.53;;;7.10;99.90;;;;;;4972143;28;20058;-88
2021/12/25 04:13:40;;;;;;;3.07;1.40;;;7.10;99.90;;;;;;4955827;28;20027;-88
2021/12/25 04:16:06;;;;;;;3.27;0.90;;;7.10;99.90;;;;;;4973126;28;20111;-88
2021/12/25 04:18:31;;;;;;;3.17;1.30;;;7.10;99.90;;;;;;4956868;28;20058;-87
2021/12/25 04:20:57;;;;;;;4.60;1.53;;;7.10;99.90;;;;;;4955369;28;20467;-88
2021/12/25 04:23:26;;;;;;;1.87;0.87;;;7.20;99.90;;;;;;4955394;28;20030;-88
2021/12/25 04:25:54;;;;;;;2.57;0.87;;;7.10;99.90;;;;;;4976624;23;20043;-86
2021/12/25 04:28:37;;;;;;;3.57;1.10;;;7.00;99.90;;;;;;4953289;29;20102;-85
2021/12/25 04:48:03;;;;;;;1.87;0.73;;;7.10;99.90;;;;;;4955823;29;20034;-86
2021/12/25 05:04:13;;;;;;;1.80;0.80;;;6.90;99.90;;;;;;4955480;29;20081;-86
2021/12/25 05:06:38;;;;;;;2.58;1.00;;;6.90;99.90;;;;;;4953977;29;20023;-86
2021/12/25 05:09:05;;;;;;;4.50;1.27;;;7.00;99.90;;;;;;4955270;29;20032;-86
2021/12/25 05:11:30;;;;;;;3.80;1.43;;;6.90;99.90;;;;;;4952600;29;20039;-86
2021/12/25 05:13:56;;;;;;;2.77;1.00;;;6.80;99.90;;;;;;4956771;28;20019;-86
2021/12/25 05:16:22;;;;;;;2.63;1.20;;;6.90;99.90;;;;;;4947403;29;20032;-87
2021/12/25 05:18:50;;;;;;;3.90;1.27;;;6.90;99.90;;;;;;4954985;29;20019;-87
2021/12/25 05:21:16;;;;;;;3.43;1.23;;;6.90;99.90;;;;;;4970867;28;20178;-87
2021/12/25 05:23:42;;;;;;;3.83;1.53;;;6.90;99.90;;;;;;4954263;29;20599;-87
2021/12/25 05:26:08;;;;;;;4.70;1.50;;;6.80;99.90;;;;;;4949293;28;20079;-87
2021/12/25 05:28:41;;;;;;;3.63;1.70;;;6.80;99.90;;;;;;4953012;29;20059;-87
2021/12/25 05:31:11;;;;;;;4.33;1.67;;;6.90;99.90;;;;;;4952369;29;20491;-87
2021/12/25 05:33:38;;;;;;;3.43;1.63;;;6.80;99.90;;;;;;4955772;28;20023;-87
2021/12/25 05:36:04;;;;;;;4.13;1.90;;;6.80;99.90;;;;;;4956124;28;20034;-86
2021/12/25 05:38:31;;;;;;;4.70;1.70;;;6.80;99.90;;;;;;4957819;28;20380;-87
2021/12/25 05:40:57;;;;;;;5.90;2.00;;;6.80;99.90;;;;;;4955835;28;20027;-86
2021/12/25 05:43:23;;;;;;;4.13;1.83;;;6.80;99.90;;;;;;4956248;28;20027;-86
2021/12/25 05:45:48;;;;;;;3.97;1.57;;;6.80;99.90;;;;;;4956123;28;20058;-86
2021/12/25 05:48:15;;;;;;;4.17;1.93;;;6.70;99.90;;;;;;4957168;28;20027;-86
2021/12/25 05:50:40;;;;;;;6.83;1.77;;;6.80;99.90;;;;;;4950750;29;20028;-86
2021/12/25 05:53:06;;;;;;;4.07;1.70;;;6.80;99.90;;;;;;4957254;29;20031;-86
2021/12/25 05:55:34;;;;;;;4.67;2.07;;;6.80;99.90;;;;;;4957227;28;20396;-86
2021/12/25 05:58:03;;;;;;;5.23;2.50;;;6.80;99.90;;;;;;4954059;29;20091;-86
2021/12/25 06:00:30;;;;;;;6.23;2.30;;;6.80;99.90;;;;;;4953067;29;20074;-87
2021/12/25 06:02:57;;;;;;;6.63;2.73;;;6.80;99.90;;;;;;4961189;28;20035;-86
2021/12/25 06:05:23;;;;;;;5.07;2.30;;;6.80;99.90;;;;;;4957784;28;20019;-88
2021/12/25 06:07:49;;;;;;;5.80;2.53;;;6.80;99.90;;;;;;4955905;29;20054;-87
2021/12/25 06:10:15;;;;;;;7.10;2.70;;;6.80;99.90;;;;;;4971932;28;20066;-87
2021/12/25 06:12:43;;;;;;;4.53;2.10;;;6.80;99.90;;;;;;4957303;28;20163;-87
2021/12/25 06:15:11;;;;;;;5.53;2.57;;;6.90;99.90;;;;;;4956830;28;20380;-87
2021/12/25 06:17:36;;;;;;;7.90;3.07;;;6.80;99.90;;;;;;4956302;29;20031;-87
2021/12/25 06:20:04;;;;;;;7.33;3.30;;;6.80;99.90;;;;;;4957524;28;20653;-87
2021/12/25 06:22:29;;;;;;;8.43;3.03;;;6.80;99.90;;;;;;4954552;29;20031;-87
2021/12/25 06:24:55;;;;;;;6.37;3.00;;;6.80;99.90;;;;;;4955732;28;20046;-87
2021/12/25 06:27:22;;;;;;;6.07;3.13;;;6.80;99.90;;;;;;4951473;29;20461;-87
2021/12/25 06:29:48;;;;;;;7.20;3.00;;;6.80;99.90;;;;;;4956802;28;20078;-87
2021/12/25 06:32:17;;;;;;;9.73;3.60;;;6.80;99.90;;;;;;4957056;28;20031;-87
2021/12/25 06:34:43;;;;;;;6.83;2.80;;;6.80;99.90;;;;;;4954457;28;20027;-87
2021/12/25 06:37:08;;;;;;;8.27;3.00;;;6.80;99.90;;;;;;4956588;28;20027;-87
2021/12/25 06:39:34;;;;;;;8.53;3.37;;;6.80;99.90;;;;;;4955361;29;20019;-87
2021/12/25 06:42:01;;;;;;;6.50;3.37;;;6.80;99.90;;;;;;4955796;29;20054;-87
2021/12/25 06:44:27;;;;;;;6.43;3.17;;;6.80;99.90;;;;;;4954240;28;20452;-87
2021/12/25 06:46:54;;;;;;;9.17;3.77;;;6.80;99.90;;;;;;4954891;29;20050;-87
2021/12/25 06:49:21;;;;;;;7.53;3.60;;;6.90;99.90;;;;;;4957325;28;20049;-87
2021/12/25 06:51:47;;;;;;;7.40;3.80;;;6.90;99.90;;;;;;4953583;29;20072;-87
2021/12/25 06:54:13;;;;;;;7.97;3.40;;;6.80;99.90;;;;;;4954853;29;20483;-87
2021/12/25 06:56:39;;;;;;;10.33;3.70;;;6.80;99.90;;;;;;4955193;28;20023;-87
2021/12/25 06:59:05;;;;;;;8.27;3.87;;;6.90;99.90;;;;;;4954567;28;20032;-87
2021/12/25 07:01:31;;;;;;;8.57;3.80;;;6.90;99.90;;;;;;4954900;29;20073;-87
2021/12/25 07:03:57;;;;;;;9.23;4.00;;;6.80;99.90;;;;;;4955208;29;20122;-87
2021/12/25 07:06:22;;;;;;;7.50;3.80;;;6.80;99.90;;;;;;4955444;29;20023;-87
2021/12/25 07:08:49;;;;;;;9.57;4.40;;;6.80;99.90;;;;;;4952585;29;20038;-87
2021/12/25 07:11:16;;;;;;;9.03;4.60;;;6.80;99.90;;;;;;4972432;28;20110;-87
2021/12/25 07:13:44;;;;;;;9.40;3.87;;;6.80;99.90;;;;;;4952149;29;20432;-87
2021/12/25 07:16:10;;;;;;;8.93;4.20;;;6.80;99.90;;;;;;4957124;28;20114;-87
2021/12/25 07:18:36;;;;;;;11.23;4.27;;;6.90;99.90;;;;;;4955333;28;20050;-87
2021/12/25 07:21:03;;;;;;;8.17;3.67;;;6.90;99.90;;;;;;4953920;29;20122;-87
2021/12/25 07:23:28;;;;;;;8.53;3.97;;;6.90;99.90;;;;;;4955947;28;20074;-87
2021/12/25 07:25:58;;;;;;;9.47;3.67;;;7.00;99.90;;;;;;4949059;28;20103;-87
2021/12/25 07:28:23;;;;;;;8.03;3.77;;;6.90;99.90;;;;;;4953002;29;20035;-87
2021/12/25 07:30:50;;;;;;;7.30;3.20;;;6.90;99.90;;;;;;4955163;29;20019;-87
2021/12/25 07:33:18;;;;;;;6.27;3.07;;;7.00;99.90;;;;;;4967919;28;20027;-87
2021/12/25 07:35:43;;;;;;;6.73;3.40;;;7.00;99.90;;;;;;4949424;29;20496;-86
2021/12/25 07:38:10;;;;;;;6.53;2.93;;;7.10;99.90;;;;;;4955661;29;20168;-87
2021/12/25 07:40:36;;;;;;;6.97;3.00;;;7.10;99.90;;;;;;4955501;29;20033;-86
2021/12/25 07:43:02;;;;;;;6.87;3.17;;;7.10;99.90;;;;;;4954369;29;20069;-86
2021/12/25 07:45:28;;;;;;;9.77;3.03;;;7.10;99.90;;;;;;4954338;28;20027;-86
2021/12/25 07:48:00;;;;;;;5.20;2.33;;;7.10;99.90;;;;;;4955386;28;20365;-86
2021/12/25 07:50:31;;;;;;;8.90;3.17;;;7.10;99.90;;;;;;4954404;29;20062;-86
2021/12/25 07:52:58;;;;;;;9.10;2.93;;;7.10;99.90;;;;;;4955495;28;21042;-86
2021/12/25 07:55:23;;;;;;;7.57;2.77;;;7.00;99.90;;;;;;4952563;28;20019;-86
2021/12/25 07:57:49;;;;;;;6.80;3.03;;;7.10;99.90;;;;;;4953169;29;20027;-86
2021/12/25 08:00:17;;;;;;;6.73;2.87;;;7.10;99.90;;;;;;4971136;28;20029;-87
2021/12/25 08:02:45;;;;;;;5.83;2.93;;;7.10;99.90;;;;;;4951468;29;20171;-87
2021/12/25 08:05:11;;;;;;;5.50;2.43;;;7.10;99.90;;;;;;4952913;28;20035;-86
2021/12/25 08:07:37;;;;;;;6.90;2.47;;;7.10;99.90;;;;;;4947213;29;20027;-87
2021/12/25 08:10:17;;;;;;;4.87;2.20;;;7.20;99.90;;;;;;4954179;28;20593;-87
2021/12/25 08:12:50;;;;;;;4.10;1.80;;;7.20;99.90;;;;;;4948015;29;20468;-86
2021/12/25 08:15:19;;;;;;;3.50;1.80;;;7.30;99.90;;;;;;4952601;28;20053;-86
2021/12/25 08:17:45;;;;;;;5.23;1.60;;;7.30;99.90;;;;;;4949244;29;20016;-86
2021/12/25 08:20:12;;;;;;;6.03;1.93;;;7.30;99.90;;;;;;4954472;28;20023;-86
2021/12/25 08:22:38;;;;;;;5.40;1.63;;;7.40;99.90;;;;;;4953588;28;20031;-86
2021/12/25 08:25:04;;;;;;;4.23;1.80;;;7.40;99.90;;;;;;4951974;28;20041;-87
2021/12/25 08:27:30;;;;;;;5.37;2.40;;;7.40;99.90;;;;;;4948993;29;20492;-86
2021/12/25 08:29:57;;;;;;;4.63;2.07;;;7.50;99.90;;;;;;4953041;28;20391;-86
2021/12/25 08:32:23;;;;;;;4.43;2.17;;;7.50;99.90;;;;;;4948618;29;20027;-85
2021/12/25 08:34:49;;;;;;;5.70;2.13;;;7.50;99.90;;;;;;4951985;28;20476;-86
2021/12/25 08:37:15;;;;;;;4.67;2.37;;;7.50;99.90;;;;;;4953486;28;20027;-86
2021/12/25 08:39:41;;;;;;;4.50;2.10;;;7.60;99.90;;;;;;4951048;29;20027;-86
2021/12/25 08:42:09;;;;;;;5.67;2.23;;;7.60;99.90;;;;;;4952059;29;20126;-86
2021/12/25 08:44:52;;;;;;;3.83;1.53;;;7.50;99.90;;;;;;4952041;28;20027;-86
2021/12/25 08:47:18;;;;;;;4.97;1.63;;;7.50;99.90;;;;;;4953864;28;20476;-86
2021/12/25 08:49:44;;;;;;;5.57;1.90;;;7.60;99.90;;;;;;4952542;28;20115;-86
2021/12/25 08:52:13;;;;;;;6.30;2.40;;;7.60;99.90;;;;;;4952906;29;20031;-87
2021/12/25 08:54:41;;;;;;;5.87;2.27;;;7.60;99.90;;;;;;4951999;28;20043;-86
2021/12/25 08:57:07;;;;;;;5.30;2.00;;;7.60;99.90;;;;;;4950514;29;20035;-87
2021/12/25 08:59:34;;;;;;;5.10;2.10;;;7.60;99.90;;;;;;4952739;29;20115;-87
2021/12/25 09:02:03;;;;;;;5.40;2.10;;;7.70;99.90;;;;;;4951136;29;20050;-86
2021/12/25 09:04:29;;;;;;;5.37;2.00;;;7.60;99.90;;;;;;4953659;28;20027;-87
2021/12/25 09:07:00;;;;;;;5.53;2.50;;;7.60;99.90;;;;;;4952493;29;20078;-86
2021/12/25 09:09:26;;;;;;;4.63;1.67;;;7.60;99.90;;;;;;4961936;28;20028;-86
2021/12/25 09:12:01;;;;;;;4.40;1.93;;;7.70;99.90;;;;;;4949966;29;20038;-86
2021/12/25 09:14:26;;;;;;;4.87;1.93;;;7.70;99.90;;;;;;4951678;28;20511;-87
2021/12/25 09:16:53;;;;;;;4.83;2.43;;;7.80;99.90;;;;;;4952517;28;20024;-86
2021/12/25 09:19:19;;;;;;;5.10;2.10;;;7.60;99.90;;;;;;4968826;28;20031;-86
2021/12/25 09:21:45;;;;;;;6.03;2.13;;;7.70;99.90;;;;;;4954273;28;20031;-86
2021/12/25 09:24:10;;;;;;;5.57;1.97;;;7.70;99.90;;;;;;4952470;29;20042;-86
2021/12/25 09:26:39;;;;;;;4.50;2.03;;;7.70;99.90;;;;;;4948624;28;20055;-87
2021/12/25 09:29:04;;;;;;;5.00;2.30;;;7.70;99.90;;;;;;4953071;29;20043;-87
2021/12/25 09:31:30;;;;;;;5.00;2.03;;;7.70;99.90;;;;;;4953214;28;20034;-86
2021/12/25 09:33:56;;;;;;;4.50;2.03;;;7.70;99.90;;;;;;4949837;29;20069;-87
2021/12/25 09:36:22;;;;;;;5.30;2.20;;;7.70;99.90;;;;;;4951374;29;20031;-87
2021/12/25 09:38:49;;;;;;;4.43;2.00;;;7.70;99.90;;;;;;4953160;28;20117;-87
2021/12/25 09:41:16;;;;;;;4.77;1.83;;;7.70;99.90;;;;;;4968775;28;20047;-87
2021/12/25 09:43:43;;;;;;;5.57;2.40;;;7.80;99.90;;;;;;4957808;28;20433;-87
2021/12/25 09:46:09;;;;;;;4.60;1.93;;;7.70;99.90;;;;;;4951440;28;20024;-87
2021/12/25 09:48:36;;;;;;;4.33;1.97;;;7.70;99.90;;;;;;4952431;28;20200;-87
2021/12/25 09:51:02;;;;;;;5.97;2.10;;;7.70;99.90;;;;;;4952171;28;20122;-87
2021/12/25 09:53:28;;;;;;;4.73;1.90;;;7.80;99.90;;;;;;4950010;29;20451;-87
2021/12/25 09:55:55;;;;;;;6.00;2.50;;;7.80;99.90;;;;;;4950111;28;20127;-86
2021/12/25 09:58:21;;;;;;;4.63;2.20;;;7.80;99.90;;;;;;4952916;28;20102;-87
2021/12/25 10:00:51;;;;;;;7.60;2.23;;;7.80;99.90;;;;;;4952093;28;20031;-87
2021/12/25 10:03:18;;;;;;;4.57;2.03;;;7.90;99.90;;;;;;4952076;28;20035;-87
2021/12/25 10:05:47;;;;;;;4.37;2.00;;;7.90;99.90;;;;;;4946986;29;20027;-87
2021/12/25 10:08:24;;;;;;;4.53;2.00;;;7.90;99.90;;;;;;4951503;29;20353;-87
2021/12/25 10:11:01;;;;;;;5.07;2.10;;;7.90;99.90;;;;;;4939544;29;20038;-86
2021/12/25 10:13:31;;;;;;;3.70;1.50;;;7.90;99.90;;;;;;4951264;29;20063;-87
2021/12/25 10:16:01;;;;;;;4.23;1.33;;;7.90;99.90;;;;;;4967777;28;20046;-87
2021/12/25 10:18:32;;;;;;;2.73;1.30;;;7.90;99.90;;;;;;4946050;28;20031;-87
2021/12/25 10:21:25;;;;;;;6.37;1.60;;;7.90;99.90;;;;;;4954956;28;20034;-87
2021/12/25 10:24:18;;;;;;;3.33;1.60;;;8.00;99.90;;;;;;4963114;28;20046;-88
2021/12/25 10:26:45;;;;;;;;;;;8.00;99.90;;;;;;4943208;29;20122;-87
2021/12/25 10:29:21;;;;;;;3.23;1.30;;;8.00;99.90;;;;;;4954454;28;19911;-87
2021/12/25 10:31:49;;;;;;;2.20;0.93;;;8.10;99.90;;;;;;4946818;29;20106;-88
2021/12/25 10:34:20;;;;;;;3.83;1.47;;;8.00;99.90;;;;;;4953089;29;20495;-87
2021/12/25 10:36:47;;;;;;;4.70;0.95;;;8.00;99.90;;;;;;4946034;29;20020;-86
2021/12/25 10:39:20;;;;;;;3.20;1.27;;;8.10;99.90;;;;;;4950763;29;20884;-87
2021/12/25 10:42:11;;;;;;;2.27;0.73;;;8.10;99.90;;;;;;4954675;28;20031;-86
2021/12/25 10:44:46;;;;;;;2.63;0.70;;;8.10;99.90;;;;;;4951872;28;20031;-88
2021/12/25 10:47:17;;;;;;;1.70;0.70;;;8.10;99.90;;;;;;4951043;29;20069;-86
2021/12/25 10:49:52;;;;;;;1.40;0.50;;;8.10;99.90;;;;;;4953184;28;20118;-86
2021/12/25 10:52:32;;;;;;;1.63;0.50;;;8.20;99.90;;;;;;4968006;28;20026;-86
2021/12/25 10:55:05;;;;;;;2.57;0.50;;;8.30;99.90;;;;;;4939719;28;20621;-87
2021/12/25 10:57:41;;;;;;;4.00;0.60;;;8.40;99.90;;;;;;4952552;29;20034;-86
2021/12/25 11:00:14;;;;;;;1.47;0.40;;;8.40;99.90;;;;;;4951669;29;20134;-85
2021/12/25 11:02:43;;;;;;;1.73;0.60;;;8.50;99.90;;;;;;4954845;28;20034;-86
2021/12/25 11:05:24;;;;;;;1.30;0.60;;;8.60;99.90;;;;;;4953723;28;20035;-86
2021/12/25 11:08:09;;;;;;;1.20;0.50;;;8.70;99.90;;;;;;4952696;29;20028;-86
2021/12/25 11:10:46;;;;;;;1.50;0.70;;;8.80;99.90;;;;;;4993597;23;20120;-87
2021/12/25 11:13:24;;;;;;;1.80;0.50;;;9.00;99.90;;;;;;4990994;28;20033;-87
2021/12/25 11:15:56;;;;;;;1.20;0.43;;;9.00;99.90;;;;;;4990243;28;20101;-86
2021/12/25 11:18:22;;;;;;;1.13;0.40;;;9.10;99.90;;;;;;4975227;28;20019;-87
2021/12/25 11:20:48;;;;;;;1.37;0.50;;;9.10;99.90;;;;;;4975049;28;20061;-88
2021/12/25 11:23:15;;;;;;;1.20;0.40;;;9.10;99.90;;;;;;4981052;28;20065;-88
2021/12/25 11:25:44;;;;;;;2.60;0.40;;;9.20;99.90;;;;;;4972098;28;20495;-87
2021/12/25 11:28:12;;;;;;;1.20;0.50;;;9.20;99.90;;;;;;4974098;28;20081;-87
2021/12/25 11:30:47;;;;;;;0.68;0.35;;;9.20;99.90;;;;;;4991645;28;20690;-87
2021/12/25 11:33:16;;;;;;;1.20;0.23;;;9.30;99.90;;;;;;4975768;28;20746;-89
2021/12/25 11:35:41;;;;;;;0.97;0.30;;;9.20;99.90;;;;;;4976199;28;20022;-88
2021/12/25 11:38:09;;;;;;;1.40;0.40;;;9.20;99.90;;;;;;4971932;28;20030;-88
2021/12/25 11:40:40;;;;;;;0.93;0.23;;;9.20;99.90;;;;;;4973963;28;20529;-88
2021/12/25 11:43:05;;;;;;;0.40;0.20;;;9.20;99.90;;;;;;4990873;28;20038;-88
2021/12/25 11:45:37;;;;;;;0.90;0.20;;;9.10;99.90;;;;;;4990035;28;20081;-88
2021/12/25 11:48:18;;;;;;;1.20;0.38;;;9.10;99.90;;;;;;4990199;28;20034;-87
2021/12/25 11:50:51;;;;;;;0.63;0.20;;;9.10;99.90;;;;;;4970160;28;20034;-88
2021/12/25 11:53:25;;;;;;;1.10;0.30;;;9.10;99.90;;;;;;4991083;28;20072;-88
2021/12/25 11:58:42;;;;;;;0.87;0.30;;;9.10;99.90;;;;;;4993307;28;20105;-88
2021/12/25 12:01:26;;;;;;;0.50;0.20;;;9.10;99.90;;;;;;4992021;28;20029;-88
2021/12/25 12:04:00;;;;;;;0.60;0.23;;;9.20;99.90;;;;;;4983492;28;20070;-88
2021/12/25 12:06:44;;;;;;;1.03;0.40;;;9.10;99.90;;;;;;4970517;28;20022;-87
2021/12/25 12:09:14;;;;;;;0.33;0.20;;;9.10;99.90;;;;;;4973941;28;20038;-88
2021/12/25 12:11:49;;;;;;;0.77;0.37;;;9.10;99.90;;;;;;4972146;28;20048;-88
2021/12/25 12:14:26;;;;;;;0.50;0.23;;;9.10;99.90;;;;;;4974696;28;20030;-88
2021/12/25 12:17:06;;;;;;;1.90;0.20;;;9.10;99.90;;;;;;4974223;28;20046;-88
2021/12/25 12:19:32;;;;;;;0.90;0.20;;;9.10;99.90;;;;;;4972051;28;20052;-88
2021/12/25 12:22:00;;;;;;;0.83;0.30;;;9.10;99.90;;;;;;4990101;28;20114;-88
2021/12/25 12:27:03;;;;;;;0.70;0.30;;;9.10;99.90;;;;;;4991590;28;20042;-88
2021/12/25 12:29:41;;;;;;;0.50;0.30;;;9.00;99.90;;;;;;4974114;28;20089;-87
2021/12/25 12:32:36;;;;;;;0.57;0.37;;;9.00;99.90;;;;;;4974241;28;20493;-87
2021/12/25 12:35:04;;;;;;;1.63;0.80;;;9.00;99.90;;;;;;4989647;28;20026;-88
2021/12/25 12:37:32;;;;;;;1.13;0.50;;;9.00;99.90;;;;;;4974511;28;20022;-88
2021/12/25 12:40:03;;;;;;;0.97;0.50;;;9.00;99.90;;;;;;4990508;28;20495;-87
2021/12/25 12:42:46;;;;;;;1.48;0.40;;;9.00;99.90;;;;;;4971075;28;20034;-89
2021/12/25 12:45:22;;;;;;;0.80;0.20;;;9.00;99.90;;;;;;4972013;28;20061;-89
2021/12/25 12:48:09;;;;;;;1.03;0.30;;;9.00;99.90;;;;;;4992325;28;20088;-88
2021/12/25 12:50:36;;;;;;;1.23;0.37;;;9.00;99.90;;;;;;4973089;28;20565;-89
2021/12/25 12:53:06;;;;;;;1.13;0.30;;;8.90;99.90;;;;;;4991023;28;20093;-88
2021/12/25 12:55:35;;;;;;;1.00;0.30;;;8.90;99.90;;;;;;4989970;28;20019;-88
2021/12/25 12:58:12;;;;;;;0.57;0.30;;;8.90;99.90;;;;;;4974800;28;20022;-89
2021/12/25 13:00:39;;;;;;;1.10;0.30;;;8.90;99.90;;;;;;4974838;28;20098;-87
2021/12/25 13:03:06;;;;;;;0.63;0.27;;;8.90;99.90;;;;;;4974790;28;20029;-89
2021/12/25 13:05:40;;;;;;;0.80;0.30;;;9.00;99.90;;;;;;4974609;28;20113;-88
2021/12/25 13:08:14;;;;;;;0.63;0.30;;;8.90;99.90;;;;;;4973776;28;20058;-89
2021/12/25 13:10:51;;;;;;;1.97;0.30;;;8.90;99.90;;;;;;4991333;28;20026;-88
2021/12/25 13:13:23;;;;;;;1.20;0.30;;;8.90;99.90;;;;;;4974192;28;20030;-88
2021/12/25 13:15:59;;;;;;;0.68;0.25;;;8.90;99.90;;;;;;4974810;28;20453;-89
2021/12/25 13:18:37;;;;;;;0.83;0.30;;;8.90;99.90;;;;;;4969451;28;20371;-89
2021/12/25 13:21:10;;;;;;;0.70;0.23;;;8.80;99.90;;;;;;4974402;28;20030;-89
2021/12/25 13:23:43;;;;;;;1.17;0.43;;;8.90;99.90;;;;;;4975209;28;20026;-88
2021/12/25 13:26:09;;;;;;;1.27;0.53;;;8.90;99.90;;;;;;4975293;28;20113;-87
2021/12/25 13:28:38;;;;;;;3.20;0.77;;;8.90;99.90;;;;;;4970231;28;20660;-88
2021/12/25 13:31:10;;;;;;;3.00;0.77;;;8.80;99.90;;;;;;4988190;28;20030;-88
2021/12/25 13:33:43;;;;;;;1.90;0.38;;;8.80;99.90;;;;;;4973637;28;20098;-88
2021/12/25 13:36:13;;;;;;;1.23;0.30;;;8.90;99.90;;;;;;4992774;28;20390;-87
2021/12/25 13:38:50;;;;;;;1.37;0.27;;;8.90;99.90;;;;;;4979747;28;20129;-88
2021/12/25 13:41:29;;;;;;;1.07;0.30;;;8.90;99.90;;;;;;4977192;28;20057;-88
2021/12/25 13:44:12;;;;;;;2.57;0.83;;;8.80;99.90;;;;;;4976121;28;20144;-88
2021/12/25 13:46:40;;;;;;;2.80;0.60;;;8.90;99.90;;;;;;4980150;28;20400;-88
2021/12/25 13:49:24;;;;;;;2.10;0.53;;;8.90;99.90;;;;;;4976134;28;20031;-88
2021/12/25 13:51:49;;;;;;;1.43;0.60;;;8.90;99.90;;;;;;4991828;28;20065;-88
2021/12/25 13:54:20;;;;;;;1.50;0.53;;;8.80;99.90;;;;;;4973834;28;20427;-88
2021/12/25 13:56:51;;;;;;;1.23;0.53;;;8.90;99.90;;;;;;4971813;28;20479;-88
2021/12/25 13:59:20;;;;;;;1.70;0.65;;;8.80;99.90;;;;;;4994529;28;20509;-87
2021/12/25 14:01:59;;;;;;;1.80;0.40;;;8.80;99.90;;;;;;4970964;28;20046;-88
2021/12/25 14:04:24;;;;;;;2.10;0.53;;;8.80;99.90;;;;;;4988304;28;20038;-88
2021/12/25 14:06:50;;;;;;;1.63;0.60;;;8.80;99.90;;;;;;4976490;28;20034;-87
2021/12/25 14:09:16;;;;;;;2.03;0.80;;;8.80;99.90;;;;;;4979485;28;20030;-88
2021/12/25 14:11:52;;;;;;;1.80;0.60;;;8.70;99.90;;;;;;4994191;28;20116;-89
2021/12/25 14:14:23;;;;;;;1.83;0.60;;;8.60;99.90;;;;;;4968220;28;20514;-86
2021/12/25 14:16:50;;;;;;;2.87;1.10;;;8.60;99.90;;;;;;4975760;28;20076;-88
2021/12/25 14:19:17;;;;;;;1.47;0.70;;;8.60;99.90;;;;;;4992400;28;20088;-85
2021/12/25 14:22:02;;;;;;;2.00;0.60;;;8.50;99.90;;;;;;4976661;28;20030;-89
2021/12/25 14:24:38;;;;;;;2.20;0.80;;;8.40;99.90;;;;;;4993031;28;20026;-87
2021/12/25 14:27:16;;;;;;;2.50;0.97;;;8.30;99.90;;;;;;4993771;28;20112;-87
2021/12/25 14:29:43;;;;;;;2.37;0.73;;;8.30;99.90;;;;;;4994095;28;21643;-87
2021/12/25 14:32:22;;;;;;;2.40;0.77;;;8.30;99.90;;;;;;4976903;28;20034;-87
2021/12/25 14:34:48;;;;;;;3.13;0.97;;;8.30;99.90;;;;;;4976124;28;20030;-86